TimePST,TemperatureF,Dew PointF,Humidity,Sea Level PressureIn,VisibilityMPH,Wind Direction,Wind SpeedMPH,Gust SpeedMPH,PrecipitationIn,Events,Conditions,WindDirDegrees,DateUTC
12:00 AM,39.2,39.2,100,30.09,8.0,West,4.6,-,N/A,Fog,Shallow Fog,270,2013-01-24 08:00:00
12:21 AM,39.2,-9999,N/A,-9999,6.0,WNW,3.5,-,N/A,,Mostly Cloudy,300,2013-01-24 08:21:00
1:00 AM,39.2,37.4,93,30.12,6.0,WNW,2.3,-,N/A,,Mostly Cloudy,290,2013-01-24 09:00:00
1:27 AM,39.2,-9999,N/A,-9999,4.0,Calm,Calm,-,N/A,,Overcast,0,2013-01-24 09:27:00
2:00 AM,39.2,37.4,93,30.14,4.0,Calm,Calm,-,N/A,,Overcast,0,2013-01-24 10:00:00
3:00 AM,41.0,39.2,93,30.16,4.0,South,2.3,-,N/A,,Overcast,180,2013-01-24 11:00:00
4:00 AM,40,39,93,30.17,4,South,2.3,,,,Mist,170,2013-01-24 12:00:00
4:00 AM,41.0,39.2,93,30.17,4.0,South,2.3,-,N/A,,Overcast,180,2013-01-24 12:00:00
5:00 AM,39.2,37.4,93,30.17,4.0,East,4.6,-,N/A,,Overcast,90,2013-01-24 13:00:00
5:48 AM,39.2,-9999,N/A,-9999,4.0,ESE,4.6,-,N/A,Rain,Light Rain,110,2013-01-24 13:48:00
6:00 AM,39.2,39.2,100,30.19,4.0,ESE,4.6,-,N/A,Rain,Light Rain,110,2013-01-24 14:00:00
7:00 AM,39.2,37.4,93,30.17,10.0,East,8.1,-,N/A,,Overcast,100,2013-01-24 15:00:00
8:00 AM,37.4,35.6,93,30.18,15.0,East,11.5,-,N/A,,Overcast,90,2013-01-24 16:00:00
9:00 AM,41.0,39.2,93,30.18,15.0,East,11.5,-,N/A,,Overcast,100,2013-01-24 17:00:00
10:00 AM,42,39,85,30.18,15,ESE,11.5,,,,Partly Cloudy,110,2013-01-24 18:00:00
10:00 AM,42.8,39.2,87,30.18,15.0,ESE,11.5,-,N/A,,Overcast,110,2013-01-24 18:00:00
11:00 AM,42.8,39.2,87,30.19,15.0,East,10.4,-,N/A,,Overcast,90,2013-01-24 19:00:00
12:00 PM,44.6,39.2,81,30.15,15.0,East,11.5,-,N/A,,Overcast,100,2013-01-24 20:00:00
1:00 PM,44.6,37.4,76,30.12,15.0,East,11.5,-,N/A,,Overcast,90,2013-01-24 21:00:00
2:00 PM,42.8,35.6,76,30.08,15.0,East,11.5,-,N/A,,Overcast,80,2013-01-24 22:00:00
3:00 PM,42.8,37.4,81,30.09,15.0,ESE,5.8,-,N/A,,Overcast,110,2013-01-24 23:00:00
3:18 PM,42.8,-9999,N/A,-9999,15.0,East,4.6,-,N/A,Rain,Light Rain,90,2013-01-24 23:18:00
3:56 PM,42.8,-9999,N/A,-9999,6.0,East,13.8,-,N/A,Rain,Light Rain,80,2013-01-24 23:56:00
4:00 PM,42,37,75,30.10,6,East,8.1,,,Rain,Light Rain,90,2013-01-25 00:00:00
4:00 PM,42.8,37.4,81,30.10,6.0,East,6.9,-,N/A,Rain,Light Rain,100,2013-01-25 00:00:00
5:00 PM,41.0,37.4,87,30.09,5.0,East,8.1,-,N/A,Rain,Light Rain,90,2013-01-25 01:00:00
5:20 PM,41.0,-9999,N/A,-9999,8.0,ENE,10.4,-,N/A,Rain,Light Rain,70,2013-01-25 01:20:00
6:00 PM,39.2,37.4,93,30.08,8.0,East,12.7,-,N/A,Rain,Light Rain,80,2013-01-25 02:00:00
7:00 PM,39.2,37.4,93,30.06,8.0,East,15.0,-,N/A,Rain,Light Rain,80,2013-01-25 03:00:00
8:00 PM,39.2,35.6,87,30.05,8.0,East,17.3,-,N/A,Rain,Light Rain,80,2013-01-25 04:00:00
9:00 PM,39.2,37.4,93,30.04,8.0,East,13.8,-,N/A,Rain,Light Rain,90,2013-01-25 05:00:00
10:00 PM,40,37,86,30.03,7,East,13.8,,,Rain,Light Rain,90,2013-01-25 06:00:00
10:00 PM,39.2,37.4,93,30.03,8.0,East,15.0,-,N/A,Rain,Light Rain,90,2013-01-25 06:00:00
11:00 PM,41.0,39.2,93,30.03,6.0,East,11.5,-,N/A,Rain,Light Rain,80,2013-01-25 07:00:00